createdAt,value
2022-09-04T00:02:05.920Z,98272.75
2022-09-04T00:04:47.517Z,98272.94
2022-09-04T00:08:09.041Z,98286.75
2022-09-04T00:10:59.938Z,98279.69
2022-09-04T00:13:46.379Z,98277.50
2022-09-04T00:16:28.232Z,98288.19
2022-09-04T00:19:07.212Z,98282.78
2022-09-04T00:22:04.006Z,98288.31
2022-09-04T00:24:56.561Z,98284.31
2022-09-04T00:27:24.190Z,98286.16
2022-09-04T00:30:07.927Z,98289.38
2022-09-04T00:33:08.496Z,98290.75
2022-09-04T00:35:41.190Z,98292.78
2022-09-04T00:38:30.645Z,98291.38
2022-09-04T00:41:04.483Z,98284.41
2022-09-04T00:43:55.432Z,98293.88
2022-09-04T00:46:47.855Z,98296.16
2022-09-04T00:49:47.515Z,98294.97
2022-09-04T00:52:38.797Z,98309.59
2022-09-04T00:55:16.097Z,98304.47
2022-09-04T00:57:49.140Z,98304.13
2022-09-04T01:00:20.172Z,98309.06
2022-09-04T01:03:04.092Z,98303.75
2022-09-04T01:05:40.585Z,98310.06
2022-09-04T01:08:20.450Z,98305.88
2022-09-04T01:11:08.568Z,98313.19
2022-09-04T01:14:29.664Z,98311.47
2022-09-04T01:17:29.353Z,98315.88
2022-09-04T01:19:58.955Z,98311.63
2022-09-04T01:22:47.265Z,98320.44
2022-09-04T01:25:30.109Z,98326.25
2022-09-04T01:28:14.747Z,98323.75
2022-09-04T01:30:47.395Z,98333.59
2022-09-04T01:33:44.956Z,98331.97
2022-09-04T01:36:20.013Z,98338.72
2022-09-04T01:38:53.714Z,98332.13
2022-09-04T01:41:31.016Z,98334.81
2022-09-04T01:44:00.328Z,98335.56
2022-09-04T01:46:42.062Z,98331.34
2022-09-04T01:49:30.626Z,98338.88
2022-09-04T01:52:02.795Z,98343.94
2022-09-04T01:54:48.214Z,98335.31
2022-09-04T01:57:32.247Z,98344.03
2022-09-04T02:00:14.322Z,98351.38
2022-09-04T02:02:41.417Z,98351.75
2022-09-04T02:05:13.766Z,98355.41
2022-09-04T02:07:48.048Z,98351.09
2022-09-04T02:10:34.470Z,98358.81
2022-09-04T02:13:35.996Z,98349.25
2022-09-04T02:16:24.944Z,98350.28
2022-09-04T02:19:37.141Z,98349.91
2022-09-04T02:22:07.209Z,98355.44
2022-09-04T02:24:40.479Z,98360.09
2022-09-04T02:27:38.897Z,98364.78
2022-09-04T02:30:11.891Z,98359.94
2022-09-04T02:33:06.195Z,98357.72
2022-09-04T02:35:46.948Z,98352.88
2022-09-04T02:38:30.837Z,98360.56
2022-09-04T02:40:58.293Z,98354.88
2022-09-04T02:44:00.416Z,98355.84
2022-09-04T02:46:27.100Z,98357.53
2022-09-04T02:49:08.635Z,98360.56
2022-09-04T02:51:45.801Z,98363.50
2022-09-04T02:54:50.849Z,98353.69
2022-09-04T02:58:08.079Z,98362.66
2022-09-04T03:00:54.421Z,98358.19
2022-09-04T03:03:30.015Z,98362.56
2022-09-04T03:06:05.135Z,98363.31
2022-09-04T03:08:36.333Z,98364.97
2022-09-04T03:11:08.992Z,98365.78
2022-09-04T03:13:57.746Z,98368.81
2022-09-04T03:16:48.395Z,98370.00
2022-09-04T03:19:20.183Z,98364.59
2022-09-04T03:21:55.621Z,98373.69
2022-09-04T03:24:56.263Z,98375.59
2022-09-04T03:27:23.291Z,98378.31
2022-09-04T03:30:08.364Z,98376.34
2022-09-04T03:32:56.679Z,98369.34
2022-09-04T03:35:33.868Z,98370.28
2022-09-04T03:38:24.156Z,98375.81
2022-09-04T03:41:00.616Z,98381.22
2022-09-04T03:43:51.220Z,98376.56
2022-09-04T03:46:41.055Z,98379.66
2022-09-04T03:49:15.216Z,98383.00
2022-09-04T03:52:09.931Z,98382.59
2022-09-04T03:54:58.352Z,98395.63
2022-09-04T03:57:30.714Z,98398.53
2022-09-04T04:00:03.669Z,98388.53
2022-09-04T04:02:54.414Z,98394.69
2022-09-04T04:05:39.137Z,98391.56
2022-09-04T04:08:23.796Z,98398.22
2022-09-04T04:11:13.127Z,98398.88
2022-09-04T04:14:04.535Z,98397.28
2022-09-04T04:16:56.202Z,98404.91
2022-09-04T04:19:44.401Z,98400.00
2022-09-04T04:22:41.466Z,98408.69
2022-09-04T04:25:25.583Z,98413.66
2022-09-04T04:28:20.111Z,98412.34
2022-09-04T04:30:54.668Z,98416.84
2022-09-04T04:33:48.670Z,98422.03
2022-09-04T04:36:34.650Z,98425.06
2022-09-04T04:39:09.985Z,98430.91
2022-09-04T04:42:06.585Z,98439.03
2022-09-04T04:45:10.862Z,98437.34
2022-09-04T04:47:57.144Z,98445.22
2022-09-04T04:51:05.398Z,98451.84
2022-09-04T04:53:57.424Z,98456.41
2022-09-04T04:57:03.878Z,98456.69
2022-09-04T04:59:34.744Z,98458.81
2022-09-04T05:02:14.022Z,98458.72
2022-09-04T05:05:07.179Z,98461.59
2022-09-04T05:08:06.324Z,98471.91
2022-09-04T05:10:51.389Z,98476.09
2022-09-04T05:13:36.419Z,98472.13
2022-09-04T05:16:19.076Z,98479.09
2022-09-04T05:19:02.671Z,98478.75
2022-09-04T05:21:37.278Z,98489.88
2022-09-04T05:24:11.253Z,98492.53
2022-09-04T05:26:53.240Z,98496.88
2022-09-04T05:29:29.307Z,98499.47
2022-09-04T05:32:05.027Z,98509.84
2022-09-04T05:35:04.119Z,98506.28
2022-09-04T05:37:44.256Z,98510.00
2022-09-04T05:40:24.840Z,98515.50
2022-09-04T05:43:02.922Z,98518.22
2022-09-04T05:45:44.763Z,98525.72
2022-09-04T05:48:20.637Z,98523.13
2022-09-04T05:51:05.298Z,98528.72
2022-09-04T05:53:50.844Z,98535.38
2022-09-04T05:56:33.272Z,98537.44
2022-09-04T05:59:09.110Z,98539.81
2022-09-04T06:01:58.772Z,98540.47
2022-09-04T06:04:46.647Z,98541.75
2022-09-04T06:07:27.638Z,98541.88
2022-09-04T06:10:03.750Z,98548.31
2022-09-04T06:12:52.371Z,98548.78
2022-09-04T06:15:40.547Z,98553.88
2022-09-04T06:18:17.307Z,98563.47
2022-09-04T06:20:59.770Z,98553.03
2022-09-04T06:23:57.675Z,98562.81
2022-09-04T06:26:57.895Z,98562.84
2022-09-04T06:29:37.716Z,98566.72
2022-09-04T06:32:14.499Z,98565.72
2022-09-04T06:34:49.050Z,98572.31
2022-09-04T06:37:33.619Z,98573.50
2022-09-04T06:40:15.311Z,98574.44
2022-09-04T06:42:56.305Z,98576.63
2022-09-04T06:45:23.020Z,98580.28
2022-09-04T06:48:08.492Z,98579.16
2022-09-04T06:50:49.136Z,98583.84
2022-09-04T06:54:04.248Z,98582.38
2022-09-04T06:57:11.040Z,98581.81
2022-09-04T06:59:59.552Z,98589.25
2022-09-04T07:02:29.028Z,98593.25
2022-09-04T07:05:14.397Z,98587.75
2022-09-04T07:08:03.217Z,98591.88
2022-09-04T07:10:43.665Z,98591.34
2022-09-04T07:13:23.688Z,98601.69
2022-09-04T07:16:14.885Z,98610.81
2022-09-04T07:18:59.604Z,98602.13
2022-09-04T07:21:42.356Z,98618.63
2022-09-04T07:24:50.464Z,98616.38
2022-09-04T07:27:42.835Z,98615.19
2022-09-04T07:30:15.199Z,98622.50
2022-09-04T07:32:53.930Z,98622.19
2022-09-04T07:35:51.175Z,98624.72
2022-09-04T07:38:29.372Z,98609.06
2022-09-04T07:41:20.074Z,98613.94
2022-09-04T07:43:55.102Z,98612.72
2022-09-04T07:46:47.211Z,98622.69
2022-09-04T07:49:32.358Z,98620.31
2022-09-04T07:52:07.668Z,98635.19
2022-09-04T07:55:13.433Z,98627.03
2022-09-04T07:57:42.814Z,98629.44
2022-09-04T08:00:15.468Z,98638.38
2022-09-04T08:03:17.053Z,98637.22
2022-09-04T08:06:19.638Z,98630.91
2022-09-04T08:09:28.888Z,98634.53
2022-09-04T08:12:09.261Z,98638.50
2022-09-04T08:14:52.472Z,98647.38
2022-09-04T08:17:49.427Z,98646.78
2022-09-04T08:20:39.112Z,98649.06
2022-09-04T08:23:36.982Z,98653.22
2022-09-04T08:26:14.273Z,98653.81
2022-09-04T08:29:12.653Z,98656.88
2022-09-04T08:31:46.870Z,98660.19
2022-09-04T08:34:39.048Z,98663.28
2022-09-04T08:37:25.077Z,98660.09
2022-09-04T08:40:34.949Z,98668.69
2022-09-04T08:43:39.792Z,98662.81
2022-09-04T08:46:31.870Z,98662.13
2022-09-04T08:49:10.973Z,98670.59
2022-09-04T08:52:09.756Z,98669.66
2022-09-04T08:55:01.929Z,98677.06
2022-09-04T08:57:43.584Z,98667.31
2022-09-04T09:00:14.458Z,98664.13
2022-09-04T09:03:06.490Z,98666.16
2022-09-04T09:05:53.651Z,98663.91
2022-09-04T09:08:23.341Z,98662.47
2022-09-04T09:11:08.569Z,98662.72
2022-09-04T09:14:20.255Z,98670.66
2022-09-04T09:16:55.761Z,98672.56
2022-09-04T09:19:45.686Z,98667.81
2022-09-04T09:22:49.775Z,98670.19
2022-09-04T09:25:20.884Z,98669.53
2022-09-04T09:28:23.473Z,98663.75
2022-09-04T09:31:27.105Z,98665.75
2022-09-04T09:34:16.984Z,98657.88
2022-09-04T09:36:53.567Z,98656.50
2022-09-04T09:39:43.924Z,98654.69
2022-09-04T09:42:28.776Z,98657.97
2022-09-04T09:45:13.437Z,98658.41
2022-09-04T09:47:59.150Z,98652.66
2022-09-04T09:50:48.497Z,98651.69
2022-09-04T09:53:46.849Z,98648.31
2022-09-04T09:56:42.033Z,98642.75
2022-09-04T09:59:32.114Z,98653.53
2022-09-04T10:02:23.730Z,98652.38
2022-09-04T10:05:08.593Z,98652.00
2022-09-04T10:08:35.503Z,98651.75
2022-09-04T10:11:17.526Z,98650.78
2022-09-04T10:13:53.529Z,98653.66
2022-09-04T10:16:38.993Z,98651.84
2022-09-04T10:19:43.229Z,98654.84
2022-09-04T10:22:31.705Z,98649.88
2022-09-04T10:25:35.565Z,98647.00
2022-09-04T10:28:17.414Z,98638.25
2022-09-04T10:31:35.173Z,98628.84
2022-09-04T10:34:07.619Z,98622.22
2022-09-04T10:36:37.115Z,98633.78
2022-09-04T10:39:51.699Z,98631.72
2022-09-04T10:42:43.912Z,98624.94
2022-09-04T10:45:17.144Z,98628.94
2022-09-04T10:48:12.653Z,98637.75
2022-09-04T10:51:02.013Z,98631.03
2022-09-04T10:53:54.787Z,98630.59
2022-09-04T10:56:35.463Z,98629.19
2022-09-04T10:59:10.397Z,98638.22
2022-09-04T11:02:09.639Z,98628.97
2022-09-04T11:04:44.483Z,98637.34
2022-09-04T11:07:28.853Z,98627.91
2022-09-04T11:10:13.798Z,98630.34
2022-09-04T11:13:03.885Z,98623.81
2022-09-04T11:15:56.373Z,98626.09
2022-09-04T11:19:04.380Z,98623.53
2022-09-04T11:21:39.999Z,98623.88
2022-09-04T11:24:23.517Z,98623.19
2022-09-04T11:27:26.367Z,98614.53
2022-09-04T11:30:12.193Z,98612.44
2022-09-04T11:33:04.241Z,98602.59
2022-09-04T11:35:45.235Z,98600.81
2022-09-04T11:38:43.877Z,98608.47
2022-09-04T11:41:57.346Z,98608.56
2022-09-04T11:45:05.816Z,98599.94
2022-09-04T11:48:00.142Z,98602.38
2022-09-04T11:50:27.075Z,98605.66
2022-09-04T11:53:20.260Z,98600.59
2022-09-04T11:56:08.675Z,98608.56
2022-09-04T11:58:47.209Z,98606.28
2022-09-04T12:01:27.057Z,98603.91
2022-09-04T12:04:05.166Z,98610.41
2022-09-04T12:06:54.115Z,98605.44
2022-09-04T12:09:31.758Z,98607.78
2022-09-04T12:12:08.255Z,98606.81
2022-09-04T12:14:48.755Z,98608.38
2022-09-04T12:17:34.812Z,98605.78
2022-09-04T12:20:24.315Z,98615.66
2022-09-04T12:23:19.230Z,98606.72
2022-09-04T12:25:58.078Z,98617.75
2022-09-04T12:28:45.810Z,98612.19
2022-09-04T12:31:35.735Z,98606.66
2022-09-04T12:34:28.748Z,98597.19
2022-09-04T12:37:11.446Z,98603.34
2022-09-04T12:39:53.328Z,98597.53
2022-09-04T12:42:26.920Z,98604.34
2022-09-04T12:45:02.947Z,98603.03
2022-09-04T12:47:57.221Z,98595.59
2022-09-04T12:50:32.750Z,98604.00
2022-09-04T12:53:12.840Z,98611.38
2022-09-04T12:55:50.788Z,98606.47
2022-09-04T12:58:34.521Z,98601.22
2022-09-04T13:01:10.781Z,98600.13
2022-09-04T13:03:45.533Z,98606.31
2022-09-04T13:06:40.050Z,98601.41
2022-09-04T13:09:23.178Z,98601.59
2022-09-04T13:11:59.217Z,98590.97
2022-09-04T13:14:42.845Z,98600.75
2022-09-04T13:17:27.463Z,98598.63
2022-09-04T13:20:08.723Z,98608.50
2022-09-04T13:22:47.267Z,98605.47
2022-09-04T13:25:23.178Z,98606.00
2022-09-04T13:27:57.491Z,98607.06
2022-09-04T13:30:25.686Z,98609.22
2022-09-04T13:33:20.078Z,98605.75
2022-09-04T13:36:02.535Z,98606.84
2022-09-04T13:38:46.620Z,98614.13
2022-09-04T13:41:54.956Z,98603.81
2022-09-04T13:44:21.723Z,98605.03
2022-09-04T13:47:09.162Z,98603.44
2022-09-04T13:49:55.318Z,98607.28
2022-09-04T13:52:43.231Z,98601.34
2022-09-04T13:55:14.365Z,98598.38
2022-09-04T13:58:02.789Z,98592.81
2022-09-04T14:00:32.266Z,98601.28
2022-09-04T14:03:11.039Z,98605.28
2022-09-04T14:05:38.146Z,98596.63
2022-09-04T14:08:08.837Z,98594.19
2022-09-04T14:11:19.981Z,98599.97
2022-09-04T14:14:13.643Z,98601.19
2022-09-04T14:16:41.866Z,98597.69
2022-09-04T14:19:17.573Z,98599.66
2022-09-04T14:22:05.491Z,98600.13
2022-09-04T14:24:59.356Z,98593.00
2022-09-04T14:27:39.560Z,98595.69
2022-09-04T14:30:13.829Z,98599.09
2022-09-04T14:33:07.251Z,98610.66
2022-09-04T14:35:53.075Z,98600.25
2022-09-04T14:38:49.486Z,98598.19
2022-09-04T14:41:54.477Z,98600.13
2022-09-04T14:44:39.295Z,98607.75
2022-09-04T14:47:34.229Z,98601.91
2022-09-04T14:50:01.533Z,98606.81
2022-09-04T14:52:35.471Z,98598.09
2022-09-04T14:55:06.946Z,98601.13
2022-09-04T14:57:36.676Z,98604.50
2022-09-04T15:00:10.956Z,98602.72
2022-09-04T15:03:02.522Z,98604.22
2022-09-04T15:05:51.620Z,98596.13
2022-09-04T15:08:26.884Z,98591.69
2022-09-04T15:10:57.373Z,98597.91
2022-09-04T15:13:32.206Z,98597.53
2022-09-04T15:16:20.166Z,98591.88
2022-09-04T15:18:58.354Z,98594.44
2022-09-04T15:21:43.906Z,98591.09
2022-09-04T15:24:25.793Z,98594.63
2022-09-04T15:27:17.289Z,98593.63
2022-09-04T15:29:57.812Z,98587.31
2022-09-04T15:32:26.928Z,98589.31
2022-09-04T15:35:15.938Z,98590.69
2022-09-04T15:37:48.322Z,98583.50
2022-09-04T15:40:31.224Z,98581.31
2022-09-04T15:43:01.698Z,98581.69
2022-09-04T15:45:40.872Z,98579.84
2022-09-04T15:48:35.456Z,98577.03
2022-09-04T15:51:22.784Z,98581.25
2022-09-04T15:54:08.234Z,98577.03
2022-09-04T15:56:39.437Z,98576.72
2022-09-04T15:59:20.555Z,98575.31
2022-09-04T16:02:12.686Z,98577.31
2022-09-04T16:05:05.723Z,98572.38
2022-09-04T16:07:51.118Z,98570.59
2022-09-04T16:10:30.272Z,98568.22
2022-09-04T16:13:01.648Z,98575.63
2022-09-04T16:15:43.250Z,98571.41
2022-09-04T16:18:16.079Z,98572.59
2022-09-04T16:20:51.770Z,98575.41
2022-09-04T16:23:28.773Z,98571.06
2022-09-04T16:25:58.276Z,98573.41
2022-09-04T16:28:31.773Z,98569.91
2022-09-04T16:31:06.574Z,98568.44
2022-09-04T16:33:33.516Z,98570.66
2022-09-04T16:36:13.933Z,98573.78
2022-09-04T16:38:59.868Z,98567.75
2022-09-04T16:41:37.653Z,98567.69
2022-09-04T16:44:14.177Z,98567.38
2022-09-04T16:47:04.751Z,98561.59
2022-09-04T16:49:39.092Z,98565.44
2022-09-04T16:52:21.327Z,98559.84
2022-09-04T16:54:55.003Z,98559.94
2022-09-04T16:57:42.539Z,98565.78
2022-09-04T17:00:14.442Z,98568.81
2022-09-04T17:02:51.881Z,98569.69
2022-09-04T17:05:28.814Z,98568.84
2022-09-04T17:08:04.929Z,98577.31
2022-09-04T17:10:36.513Z,98567.72
2022-09-04T17:13:12.248Z,98573.69
2022-09-04T17:15:53.194Z,98574.94
2022-09-04T17:18:22.666Z,98566.63
2022-09-04T17:22:24.969Z,98576.50
2022-09-04T17:28:58.087Z,98572.19
2022-09-04T17:29:08.974Z,98574.03
2022-09-04T17:29:47.727Z,98578.91
2022-09-04T17:36:39.029Z,98583.44
2022-09-04T17:40:38.375Z,98575.16
2022-09-04T17:40:57.153Z,98574.47
2022-09-04T17:41:36.383Z,98578.69
2022-09-04T17:44:22.402Z,98577.34
2022-09-04T17:47:07.072Z,98565.63
2022-09-04T17:49:35.118Z,98575.47
2022-09-04T17:52:09.007Z,98569.09
2022-09-04T17:54:48.863Z,98578.66
2022-09-04T17:57:28.953Z,98579.72
2022-09-04T18:00:06.695Z,98577.09
2022-09-04T18:02:56.308Z,98582.50
2022-09-04T18:05:31.559Z,98590.16
2022-09-04T18:08:13.774Z,98585.84
2022-09-04T18:10:49.670Z,98595.16
2022-09-04T18:13:36.756Z,98600.75
2022-09-04T18:16:16.286Z,98600.78
2022-09-04T18:18:47.165Z,98612.16
2022-09-04T18:21:26.920Z,98617.69
2022-09-04T18:24:07.497Z,98609.44
2022-09-04T18:26:41.696Z,98616.03
2022-09-04T18:30:35.309Z,98619.56
2022-09-04T18:37:25.130Z,98631.94
2022-09-04T18:37:25.847Z,98630.69
2022-09-04T18:37:59.830Z,98629.47
2022-09-04T18:44:58.523Z,98642.44
2022-09-04T18:50:24.469Z,98642.66
2022-09-04T18:50:30.442Z,98647.81
2022-09-04T18:50:45.240Z,98647.19
2022-09-04T18:52:00.532Z,98666.38
2022-09-04T18:54:39.690Z,98656.25
2022-09-04T18:57:20.568Z,98658.94
2022-09-04T18:59:54.930Z,98661.19
2022-09-04T19:02:43.872Z,98662.63
2022-09-04T19:05:20.343Z,98660.34
2022-09-04T19:08:05.362Z,98657.25
2022-09-04T19:10:45.343Z,98670.22
2022-09-04T19:13:19.517Z,98668.19
2022-09-04T19:16:10.648Z,98671.28
2022-09-04T19:19:00.826Z,98673.31
2022-09-04T19:21:40.848Z,98679.09
2022-09-04T19:24:32.087Z,98665.28
2022-09-04T19:27:27.210Z,98672.28
2022-09-04T19:30:18.750Z,98682.28
2022-09-04T19:32:59.754Z,98675.25
2022-09-04T19:35:50.091Z,98669.88
2022-09-04T19:45:34.831Z,98675.00
2022-09-04T19:46:04.421Z,98675.56
2022-09-04T19:46:14.313Z,98676.00
2022-09-04T19:47:40.405Z,98687.75
2022-09-04T19:53:32.832Z,98684.63
2022-09-04T19:53:38.928Z,98687.88
2022-09-04T19:56:30.734Z,98694.84
2022-09-04T19:59:26.864Z,98685.34
2022-09-04T20:02:02.824Z,98676.66
2022-09-04T20:04:41.207Z,98675.19
2022-09-04T20:07:32.448Z,98677.56
2022-09-04T20:10:04.684Z,98673.03
2022-09-04T20:12:44.119Z,98673.00
2022-09-04T20:15:22.436Z,98674.41
2022-09-04T20:18:19.782Z,98677.38
2022-09-04T20:20:58.197Z,98678.81
2022-09-04T20:23:52.348Z,98679.13
2022-09-04T20:26:30.782Z,98680.34
2022-09-04T20:29:20.800Z,98681.78
2022-09-04T20:31:52.940Z,98672.53
2022-09-04T20:34:39.006Z,98678.31
2022-09-04T20:37:23.638Z,98676.03
2022-09-04T20:39:59.486Z,98676.03
2022-09-04T20:42:35.894Z,98675.38
2022-09-04T20:48:55.129Z,98673.19
2022-09-04T20:52:42.762Z,98670.53
2022-09-04T20:53:06.041Z,98667.16
2022-09-04T20:54:06.022Z,98677.16
2022-09-04T21:00:39.273Z,98682.22
2022-09-04T21:03:14.259Z,98678.84
2022-09-04T21:03:23.114Z,98682.91
2022-09-04T21:05:32.863Z,98688.63
2022-09-04T21:08:06.575Z,98685.31
2022-09-04T21:10:41.017Z,98680.34
2022-09-04T21:13:23.181Z,98673.16
2022-09-04T21:15:59.282Z,98673.81
2022-09-04T21:19:27.893Z,98677.69
2022-09-04T21:22:32.645Z,98675.91
2022-09-04T21:25:27.901Z,98675.25
2022-09-04T21:28:32.049Z,98671.69
2022-09-04T21:31:17.374Z,98680.72
2022-09-04T21:33:45.642Z,98677.94
2022-09-04T21:36:38.217Z,98683.88
2022-09-04T21:39:41.453Z,98691.41
2022-09-04T21:42:20.805Z,98685.09
2022-09-04T21:45:19.041Z,98690.69
2022-09-04T21:48:02.016Z,98689.50
2022-09-04T21:50:46.839Z,98696.50
2022-09-04T21:53:41.138Z,98698.28
2022-09-04T22:00:48.950Z,98696.53
2022-09-04T22:02:45.024Z,98701.75
2022-09-04T22:03:09.619Z,98701.59
2022-09-04T22:05:56.636Z,98702.41
2022-09-04T22:13:30.678Z,98696.13
2022-09-04T22:13:46.008Z,98699.84
2022-09-04T22:14:37.424Z,98694.88
2022-09-04T22:17:24.913Z,98701.13
2022-09-04T22:20:08.645Z,98698.72
2022-09-04T22:22:56.809Z,98700.56
2022-09-04T22:25:47.985Z,98706.25
2022-09-04T22:29:00.099Z,98712.44
2022-09-04T22:31:29.688Z,98715.28
2022-09-04T22:34:15.007Z,98709.94
2022-09-04T22:37:12.144Z,98723.38
2022-09-04T22:40:13.010Z,98724.75
2022-09-04T22:43:01.805Z,98724.28
2022-09-04T22:45:41.404Z,98715.84
2022-09-04T22:48:32.733Z,98716.66
2022-09-04T22:51:06.083Z,98717.84
2022-09-04T22:54:17.799Z,98715.25
2022-09-04T22:56:57.389Z,98722.50
2022-09-04T23:00:01.729Z,98723.06
2022-09-04T23:06:14.039Z,98721.78
2022-09-04T23:13:42.784Z,98721.06
2022-09-04T23:14:02.318Z,98715.63
2022-09-04T23:15:17.235Z,98727.41
2022-09-04T23:19:50.159Z,98728.59
2022-09-04T23:26:32.847Z,98720.25
2022-09-04T23:26:41.908Z,98723.81
2022-09-04T23:27:27.971Z,98726.34
2022-09-04T23:30:04.958Z,98720.50
2022-09-04T23:32:35.412Z,98724.16
2022-09-04T23:35:27.590Z,98722.97
2022-09-04T23:38:24.128Z,98729.03
2022-09-04T23:40:53.670Z,98725.34
2022-09-04T23:43:30.901Z,98728.41
2022-09-04T23:46:13.380Z,98735.63
2022-09-04T23:49:18.258Z,98728.78
2022-09-04T23:52:05.118Z,98731.28
2022-09-04T23:54:56.896Z,98736.06
2022-09-04T23:57:55.812Z,98730.06
